sensor_id;sensor_type;location;lat;lon;timestamp;pressure;altitude;pressure_sealevel;temperature;humidity
42169;BME280;27838;43.858;25.974;2022-09-23T00:00:39;101194.97;;;17.03;48.25
42169;BME280;27838;43.858;25.974;2022-09-23T00:03:06;101191.38;;;17.07;48.16
42169;BME280;27838;43.858;25.974;2022-09-23T00:05:33;101196.63;;;17.08;48.37
42169;BME280;27838;43.858;25.974;2022-09-23T00:08:00;101190.50;;;17.06;48.71
42169;BME280;27838;43.858;25.974;2022-09-23T00:10:28;101196.75;;;17.02;49.17
42169;BME280;27838;43.858;25.974;2022-09-23T00:12:56;101193.34;;;16.97;49.32
42169;BME280;27838;43.858;25.974;2022-09-23T00:15:24;101193.41;;;16.92;49.16
42169;BME280;27838;43.858;25.974;2022-09-23T00:17:51;101198.69;;;16.91;49.84
42169;BME280;27838;43.858;25.974;2022-09-23T00:20:18;101196.19;;;16.85;50.00
42169;BME280;27838;43.858;25.974;2022-09-23T00:22:45;101189.34;;;16.74;49.88
42169;BME280;27838;43.858;25.974;2022-09-23T00:25:12;101205.03;;;16.79;49.76
42169;BME280;27838;43.858;25.974;2022-09-23T00:27:39;101206.78;;;16.78;49.87
42169;BME280;27838;43.858;25.974;2022-09-23T00:30:08;101193.66;;;16.77;49.83
42169;BME280;27838;43.858;25.974;2022-09-23T00:32:35;101205.94;;;16.78;50.13
42169;BME280;27838;43.858;25.974;2022-09-23T00:35:02;101197.25;;;16.73;50.08
42169;BME280;27838;43.858;25.974;2022-09-23T00:37:29;101197.31;;;16.70;50.22
42169;BME280;27838;43.858;25.974;2022-09-23T00:39:56;101193.03;;;16.64;50.54
42169;BME280;27838;43.858;25.974;2022-09-23T00:42:24;101195.69;;;16.61;50.55
42169;BME280;27838;43.858;25.974;2022-09-23T00:44:55;101207.03;;;16.65;50.74
42169;BME280;27838;43.858;25.974;2022-09-23T00:47:32;101217.50;;;16.69;50.17
42169;BME280;27838;43.858;25.974;2022-09-23T00:50:16;101228.94;;;16.65;50.31
42169;BME280;27838;43.858;25.974;2022-09-23T00:52:44;101226.31;;;16.65;50.13
42169;BME280;27838;43.858;25.974;2022-09-23T00:55:15;101229.91;;;16.61;50.67
42169;BME280;27838;43.858;25.974;2022-09-23T00:57:44;101227.44;;;16.52;51.10
42169;BME280;27838;43.858;25.974;2022-09-23T01:00:13;101233.59;;;16.51;51.63
42169;BME280;27838;43.858;25.974;2022-09-23T01:02:39;101232.72;;;16.52;51.03
42169;BME280;27838;43.858;25.974;2022-09-23T01:05:07;101236.22;;;16.51;51.77
42169;BME280;27838;43.858;25.974;2022-09-23T01:07:34;101245.00;;;16.51;51.83
42169;BME280;27838;43.858;25.974;2022-09-23T01:10:01;101254.69;;;16.48;52.20
42169;BME280;27838;43.858;25.974;2022-09-23T01:15:18;101255.69;;;16.39;52.50
42169;BME280;27838;43.858;25.974;2022-09-23T01:26:39;101274.38;;;16.23;54.02
42169;BME280;27838;43.858;25.974;2022-09-23T01:38:16;101272.75;;;16.13;54.71
42169;BME280;27838;43.858;25.974;2022-09-23T01:40:51;101277.06;;;16.17;54.53
42169;BME280;27838;43.858;25.974;2022-09-23T01:43:40;101277.09;;;16.14;54.42
42169;BME280;27838;43.858;25.974;2022-09-23T01:46:23;101278.91;;;16.11;54.82
42169;BME280;27838;43.858;25.974;2022-09-23T01:49:14;101282.44;;;16.10;54.61
42169;BME280;27838;43.858;25.974;2022-09-23T01:51:52;101274.50;;;16.13;54.80
42169;BME280;27838;43.858;25.974;2022-09-23T01:54:33;101277.09;;;16.14;54.64
42169;BME280;27838;43.858;25.974;2022-09-23T01:57:08;101280.66;;;16.12;54.78
42169;BME280;27838;43.858;25.974;2022-09-23T01:59:48;101281.59;;;16.08;55.11
42169;BME280;27838;43.858;25.974;2022-09-23T02:02:29;101279.06;;;16.00;55.24
42169;BME280;27838;43.858;25.974;2022-09-23T02:05:05;101271.34;;;15.89;55.75
42169;BME280;27838;43.858;25.974;2022-09-23T02:07:41;101280.06;;;15.91;55.86
42169;BME280;27838;43.858;25.974;2022-09-23T02:10:22;101272.22;;;15.88;55.87
42169;BME280;27838;43.858;25.974;2022-09-23T02:12:53;101276.63;;;15.86;55.58
42169;BME280;27838;43.858;25.974;2022-09-23T02:15:24;101271.47;;;15.80;55.95
42169;BME280;27838;43.858;25.974;2022-09-23T02:18:00;101266.25;;;15.71;55.96
42169;BME280;27838;43.858;25.974;2022-09-23T02:20:33;101266.25;;;15.75;56.41
42169;BME280;27838;43.858;25.974;2022-09-23T02:23:18;101269.81;;;15.70;56.68
42169;BME280;27838;43.858;25.974;2022-09-23T02:25:59;101275.97;;;15.65;56.64
42169;BME280;27838;43.858;25.974;2022-09-23T02:28:40;101270.72;;;15.65;56.25
42169;BME280;27838;43.858;25.974;2022-09-23T02:31:29;101270.78;;;15.62;56.59
42169;BME280;27838;43.858;25.974;2022-09-23T02:37:30;101282.25;;;15.54;56.77
42169;BME280;27838;43.858;25.974;2022-09-23T02:43:05;101284.06;;;15.50;57.20
42169;BME280;27838;43.858;25.974;2022-09-23T02:45:34;101281.44;;;15.48;57.40
42169;BME280;27838;43.858;25.974;2022-09-23T02:48:29;101284.91;;;15.51;57.09
42169;BME280;27838;43.858;25.974;2022-09-23T02:50:54;101286.59;;;15.55;56.69
42169;BME280;27838;43.858;25.974;2022-09-23T02:53:24;101280.47;;;15.57;56.83
42169;BME280;27838;43.858;25.974;2022-09-23T02:55:50;101284.78;;;15.60;56.87
42169;BME280;27838;43.858;25.974;2022-09-23T02:58:17;101287.50;;;15.55;56.84
42169;BME280;27838;43.858;25.974;2022-09-23T03:00:48;101285.78;;;15.51;57.28
42169;BME280;27838;43.858;25.974;2022-09-23T03:03:29;101296.31;;;15.48;57.18
42169;BME280;27838;43.858;25.974;2022-09-23T03:06:13;101296.38;;;15.45;57.31
42169;BME280;27838;43.858;25.974;2022-09-23T03:08:51;101291.13;;;15.42;57.26
42169;BME280;27838;43.858;25.974;2022-09-23T03:11:20;101292.00;;;15.42;56.95
42169;BME280;27838;43.858;25.974;2022-09-23T03:14:00;101296.41;;;15.42;57.30
42169;BME280;27838;43.858;25.974;2022-09-23T03:24:22;101299.03;;;15.42;56.89
42169;BME280;27838;43.858;25.974;2022-09-23T03:26:51;101288.50;;;15.43;56.75
42169;BME280;27838;43.858;25.974;2022-09-23T03:29:20;101302.56;;;15.38;55.93
42169;BME280;27838;43.858;25.974;2022-09-23T03:31:48;101305.09;;;15.45;55.60
42169;BME280;27838;43.858;25.974;2022-09-23T03:34:22;101295.44;;;15.47;55.35
42169;BME280;27838;43.858;25.974;2022-09-23T03:37:25;101299.03;;;15.39;55.38
42169;BME280;27838;43.858;25.974;2022-09-23T03:40:06;101311.38;;;15.32;55.83
42169;BME280;27838;43.858;25.974;2022-09-23T03:42:36;101306.22;;;15.24;55.71
42169;BME280;27838;43.858;25.974;2022-09-23T03:45:05;101313.22;;;15.22;55.80
42169;BME280;27838;43.858;25.974;2022-09-23T03:47:34;101315.88;;;15.21;55.58
42169;BME280;27838;43.858;25.974;2022-09-23T03:50:01;101307.19;;;15.13;55.75
42169;BME280;27838;43.858;25.974;2022-09-23T03:52:28;101317.69;;;15.11;55.38
42169;BME280;27838;43.858;25.974;2022-09-23T03:54:54;101312.53;;;15.05;55.23
42169;BME280;27838;43.858;25.974;2022-09-23T03:57:21;101323.91;;;15.01;54.88
42169;BME280;27838;43.858;25.974;2022-09-23T03:59:49;101317.81;;;14.99;54.74
42169;BME280;27838;43.858;25.974;2022-09-23T04:02:17;101313.50;;;14.91;54.92
42169;BME280;27838;43.858;25.974;2022-09-23T04:04:45;101315.19;;;14.97;54.63
42169;BME280;27838;43.858;25.974;2022-09-23T04:07:12;101313.50;;;14.91;54.90
42169;BME280;27838;43.858;25.974;2022-09-23T04:09:39;101304.81;;;14.85;54.86
42169;BME280;27838;43.858;25.974;2022-09-23T04:12:06;101308.34;;;14.82;55.33
42169;BME280;27838;43.858;25.974;2022-09-23T04:14:33;101310.03;;;14.86;55.28
42169;BME280;27838;43.858;25.974;2022-09-23T04:16:59;101304.78;;;14.88;55.55
42169;BME280;27838;43.858;25.974;2022-09-23T04:19:26;101304.66;;;15.02;54.48
42169;BME280;27838;43.858;25.974;2022-09-23T04:21:53;101310.69;;;15.13;54.27
42169;BME280;27838;43.858;25.974;2022-09-23T04:24:20;101306.28;;;15.17;53.94
42169;BME280;27838;43.858;25.974;2022-09-23T04:26:52;101312.34;;;15.23;53.42
42169;BME280;27838;43.858;25.974;2022-09-23T04:29:19;101311.50;;;15.20;53.94
42169;BME280;27838;43.858;25.974;2022-09-23T04:31:46;101315.06;;;15.13;54.12
42169;BME280;27838;43.858;25.974;2022-09-23T04:34:13;101312.44;;;15.14;54.18
42169;BME280;27838;43.858;25.974;2022-09-23T04:36:42;101315.91;;;15.16;53.69
42169;BME280;27838;43.858;25.974;2022-09-23T04:39:09;101318.56;;;15.13;53.65
42169;BME280;27838;43.858;25.974;2022-09-23T04:41:36;101310.72;;;15.10;53.56
42169;BME280;27838;43.858;25.974;2022-09-23T04:44:03;101321.16;;;15.16;53.53
42169;BME280;27838;43.858;25.974;2022-09-23T04:46:30;101314.13;;;15.20;52.88
42169;BME280;27838;43.858;25.974;2022-09-23T04:48:57;101313.22;;;15.24;53.09
42169;BME280;27838;43.858;25.974;2022-09-23T04:51:24;101321.94;;;15.26;53.08
42169;BME280;27838;43.858;25.974;2022-09-23T04:53:53;101316.69;;;15.26;52.38
42169;BME280;27838;43.858;25.974;2022-09-23T04:56:23;101322.81;;;15.26;52.57
42169;BME280;27838;43.858;25.974;2022-09-23T04:58:50;101325.44;;;15.28;52.24
42169;BME280;27838;43.858;25.974;2022-09-23T05:01:21;101323.66;;;15.28;52.57
42169;BME280;27838;43.858;25.974;2022-09-23T05:03:50;101333.28;;;15.29;52.98
42169;BME280;27838;43.858;25.974;2022-09-23T05:06:17;101331.53;;;15.32;52.92
42169;BME280;27838;43.858;25.974;2022-09-23T05:08:53;101336.81;;;15.27;53.15
42169;BME280;27838;43.858;25.974;2022-09-23T05:11:20;101340.34;;;15.23;52.87
42169;BME280;27838;43.858;25.974;2022-09-23T05:13:48;101334.25;;;15.22;52.44
42169;BME280;27838;43.858;25.974;2022-09-23T05:16:15;101344.78;;;15.18;53.08
42169;BME280;27838;43.858;25.974;2022-09-23T05:18:43;101336.91;;;15.16;52.88
42169;BME280;27838;43.858;25.974;2022-09-23T05:21:12;101330.78;;;15.20;53.14
42169;BME280;27838;43.858;25.974;2022-09-23T05:23:40;101342.97;;;15.23;53.01
42169;BME280;27838;43.858;25.974;2022-09-23T05:26:11;101343.78;;;15.33;52.85
42169;BME280;27838;43.858;25.974;2022-09-23T05:28:38;101336.72;;;15.38;52.67
42169;BME280;27838;43.858;25.974;2022-09-23T05:31:25;101344.50;;;15.48;52.30
42169;BME280;27838;43.858;25.974;2022-09-23T05:33:55;101338.28;;;15.54;52.64
42169;BME280;27838;43.858;25.974;2022-09-23T05:36:23;101333.88;;;15.58;52.34
42169;BME280;27838;43.858;25.974;2022-09-23T05:38:50;101338.19;;;15.62;53.13
42169;BME280;27838;43.858;25.974;2022-09-23T05:41:19;101336.38;;;15.68;53.33
42169;BME280;27838;43.858;25.974;2022-09-23T05:43:47;101333.69;;;15.73;53.75
42169;BME280;27838;43.858;25.974;2022-09-23T05:46:25;101344.13;;;15.82;54.35
42169;BME280;27838;43.858;25.974;2022-09-23T05:48:54;101345.81;;;15.88;54.16
42169;BME280;27838;43.858;25.974;2022-09-23T05:51:23;101346.59;;;15.96;53.10
42169;BME280;27838;43.858;25.974;2022-09-23T05:53:51;101336.94;;;15.98;52.40
42169;BME280;27838;43.858;25.974;2022-09-23T05:56:20;101343.84;;;16.05;52.88
42169;BME280;27838;43.858;25.974;2022-09-23T05:58:51;101350.88;;;16.05;51.94
42169;BME280;27838;43.858;25.974;2022-09-23T06:01:21;101341.19;;;16.09;51.72
42169;BME280;27838;43.858;25.974;2022-09-23T06:03:50;101348.13;;;16.14;51.60
42169;BME280;27838;43.858;25.974;2022-09-23T06:06:19;101355.09;;;16.17;52.13
42169;BME280;27838;43.858;25.974;2022-09-23T06:08:47;101355.03;;;16.21;51.46
42169;BME280;27838;43.858;25.974;2022-09-23T06:11:14;101355.00;;;16.23;51.61
42169;BME280;27838;43.858;25.974;2022-09-23T06:13:40;101349.69;;;16.28;52.77
42169;BME280;27838;43.858;25.974;2022-09-23T06:16:09;101360.97;;;16.37;52.92
42169;BME280;27838;43.858;25.974;2022-09-23T06:18:40;101362.59;;;16.46;53.14
42169;BME280;27838;43.858;25.974;2022-09-23T06:21:07;101366.97;;;16.47;53.43
42169;BME280;27838;43.858;25.974;2022-09-23T06:23:35;101366.06;;;16.48;53.02
42169;BME280;27838;43.858;25.974;2022-09-23T06:26:06;101368.56;;;16.57;52.99
42169;BME280;27838;43.858;25.974;2022-09-23T06:28:35;101364.09;;;16.63;52.47
42169;BME280;27838;43.858;25.974;2022-09-23T06:31:04;101370.16;;;16.69;52.41
42169;BME280;27838;43.858;25.974;2022-09-23T06:33:33;101382.47;;;16.67;52.54
42169;BME280;27838;43.858;25.974;2022-09-23T06:36:02;101375.41;;;16.71;52.78
42169;BME280;27838;43.858;25.974;2022-09-23T06:38:29;101384.97;;;16.75;52.93
42169;BME280;27838;43.858;25.974;2022-09-23T06:40:57;101384.09;;;16.77;52.98
42169;BME280;27838;43.858;25.974;2022-09-23T06:43:25;101384.91;;;16.79;52.50
42169;BME280;27838;43.858;25.974;2022-09-23T06:45:52;101389.28;;;16.80;52.34
42169;BME280;27838;43.858;25.974;2022-09-23T06:48:20;101383.16;;;16.80;52.53
42169;BME280;27838;43.858;25.974;2022-09-23T06:50:48;101393.63;;;16.86;52.25
42169;BME280;27838;43.858;25.974;2022-09-23T06:53:15;101384.84;;;16.86;51.57
42169;BME280;27838;43.858;25.974;2022-09-23T06:55:42;101382.16;;;16.89;51.50
42169;BME280;27838;43.858;25.974;2022-09-23T06:58:09;101383.94;;;16.88;51.60
42169;BME280;27838;43.858;25.974;2022-09-23T07:00:36;101377.84;;;16.85;51.48
42169;BME280;27838;43.858;25.974;2022-09-23T07:03:06;101376.94;;;16.83;51.71
42169;BME280;27838;43.858;25.974;2022-09-23T07:05:34;101379.72;;;16.75;52.28
42169;BME280;27838;43.858;25.974;2022-09-23T07:08:06;101385.03;;;16.72;54.70
42169;BME280;27838;43.858;25.974;2022-09-23T07:10:34;101388.63;;;16.65;55.76
42169;BME280;27838;43.858;25.974;2022-09-23T07:13:02;101394.00;;;16.58;55.73
42169;BME280;27838;43.858;25.974;2022-09-23T07:15:28;101403.75;;;16.52;55.63
42169;BME280;27838;43.858;25.974;2022-09-23T07:17:56;101407.25;;;16.51;56.18
42169;BME280;27838;43.858;25.974;2022-09-23T07:20:22;101413.47;;;16.47;57.16
42169;BME280;27838;43.858;25.974;2022-09-23T07:22:50;101413.50;;;16.43;57.24
42169;BME280;27838;43.858;25.974;2022-09-23T07:25:17;101424.06;;;16.40;58.83
42169;BME280;27838;43.858;25.974;2022-09-23T07:27:44;101419.66;;;16.42;58.41
42169;BME280;27838;43.858;25.974;2022-09-23T07:30:12;101431.06;;;16.41;59.60
42169;BME280;27838;43.858;25.974;2022-09-23T07:32:39;101434.66;;;16.36;59.86
42169;BME280;27838;43.858;25.974;2022-09-23T07:35:07;101432.94;;;16.32;60.50
42169;BME280;27838;43.858;25.974;2022-09-23T07:37:34;101433.00;;;16.27;60.65
42169;BME280;27838;43.858;25.974;2022-09-23T07:40:02;101426.94;;;16.22;60.88
42169;BME280;27838;43.858;25.974;2022-09-23T07:42:29;101424.31;;;16.22;61.71
42169;BME280;27838;43.858;25.974;2022-09-23T07:44:55;101415.59;;;16.18;61.47
42169;BME280;27838;43.858;25.974;2022-09-23T07:47:22;101414.66;;;16.22;61.66
42169;BME280;27838;43.858;25.974;2022-09-23T07:49:48;101424.22;;;16.28;61.16
42169;BME280;27838;43.858;25.974;2022-09-23T07:52:15;101413.66;;;16.30;60.70
42169;BME280;27838;43.858;25.974;2022-09-23T07:54:46;101420.72;;;16.28;60.75
42169;BME280;27838;43.858;25.974;2022-09-23T07:57:12;101408.44;;;16.27;61.40
42169;BME280;27838;43.858;25.974;2022-09-23T07:59:39;101416.31;;;16.28;61.63
42169;BME280;27838;43.858;25.974;2022-09-23T08:02:08;101404.13;;;16.21;61.76
42169;BME280;27838;43.858;25.974;2022-09-23T08:04:39;101402.41;;;16.20;62.16
42169;BME280;27838;43.858;25.974;2022-09-23T08:07:06;101404.25;;;16.13;61.82
42169;BME280;27838;43.858;25.974;2022-09-23T08:09:38;101402.59;;;16.04;62.55
42169;BME280;27838;43.858;25.974;2022-09-23T08:12:11;101409.66;;;15.99;62.16
42169;BME280;27838;43.858;25.974;2022-09-23T08:14:40;101401.78;;;15.98;63.09
42169;BME280;27838;43.858;25.974;2022-09-23T08:17:07;101409.72;;;15.93;63.08
42169;BME280;27838;43.858;25.974;2022-09-23T08:19:33;101409.81;;;15.87;62.56
42169;BME280;27838;43.858;25.974;2022-09-23T08:22:00;101408.06;;;15.86;62.36
42169;BME280;27838;43.858;25.974;2022-09-23T08:24:26;101406.28;;;15.86;62.88
42169;BME280;27838;43.858;25.974;2022-09-23T08:26:54;101405.38;;;15.91;63.46
42169;BME280;27838;43.858;25.974;2022-09-23T08:29:22;101407.09;;;15.92;63.67
42169;BME280;27838;43.858;25.974;2022-09-23T08:31:50;101407.06;;;15.95;63.81
42169;BME280;27838;43.858;25.974;2022-09-23T08:34:18;101401.78;;;15.99;64.04
42169;BME280;27838;43.858;25.974;2022-09-23T08:36:45;101407.81;;;16.08;63.91
42169;BME280;27838;43.858;25.974;2022-09-23T08:39:17;101407.72;;;16.17;64.06
42169;BME280;27838;43.858;25.974;2022-09-23T08:50:19;101409.34;;;16.26;62.11
42169;BME280;27838;43.858;25.974;2022-09-23T08:55:31;101403.91;;;16.39;61.29
42169;BME280;27838;43.858;25.974;2022-09-23T09:03:49;101398.38;;;16.58;61.79
42169;BME280;27838;43.858;25.974;2022-09-23T09:06:22;101399.16;;;16.65;61.18
42169;BME280;27838;43.858;25.974;2022-09-23T09:08:55;101400.91;;;16.67;60.59
42169;BME280;27838;43.858;25.974;2022-09-23T09:11:27;101405.25;;;16.68;59.78
42169;BME280;27838;43.858;25.974;2022-09-23T09:14:04;101401.72;;;16.72;59.64
42169;BME280;27838;43.858;25.974;2022-09-23T09:16:46;101404.25;;;16.75;59.55
42169;BME280;27838;43.858;25.974;2022-09-23T09:19:35;101404.16;;;16.83;59.87
42169;BME280;27838;43.858;25.974;2022-09-23T09:22:12;101404.16;;;16.83;59.16
42169;BME280;27838;43.858;25.974;2022-09-23T09:24:42;101401.53;;;16.86;57.99
42169;BME280;27838;43.858;25.974;2022-09-23T09:27:11;101409.34;;;16.91;58.37
42169;BME280;27838;43.858;25.974;2022-09-23T09:29:42;101419.81;;;16.95;60.18
42169;BME280;27838;43.858;25.974;2022-09-23T09:32:27;101412.75;;;16.97;61.06
42169;BME280;27838;43.858;25.974;2022-09-23T09:35:04;101411.81;;;17.00;61.58
42169;BME280;27838;43.858;25.974;2022-09-23T09:37:41;101407.47;;;16.99;61.65
42169;BME280;27838;43.858;25.974;2022-09-23T09:40:11;101415.31;;;17.04;60.96
42169;BME280;27838;43.858;25.974;2022-09-23T09:42:40;101416.06;;;17.09;60.21
42169;BME280;27838;43.858;25.974;2022-09-23T09:47:55;101417.66;;;17.21;59.83
42169;BME280;27838;43.858;25.974;2022-09-23T09:50:51;101425.53;;;17.22;59.44
42169;BME280;27838;43.858;25.974;2022-09-23T09:53:25;101421.94;;;17.26;59.69
42169;BME280;27838;43.858;25.974;2022-09-23T09:56:02;101420.06;;;17.33;60.30
42169;BME280;27838;43.858;25.974;2022-09-23T09:58:36;101415.63;;;17.36;59.35
42169;BME280;27838;43.858;25.974;2022-09-23T10:01:16;101419.00;;;17.45;59.86
42169;BME280;27838;43.858;25.974;2022-09-23T10:03:43;101421.41;;;17.57;60.06
42169;BME280;27838;43.858;25.974;2022-09-23T10:06:20;101423.81;;;17.71;59.13
42169;BME280;27838;43.858;25.974;2022-09-23T10:11:39;101421.69;;;17.91;56.64
42169;BME280;27838;43.858;25.974;2022-09-23T10:14:16;101431.28;;;17.96;55.32
42169;BME280;27838;43.858;25.974;2022-09-23T10:16:44;101416.84;;;18.14;54.98
42169;BME280;27838;43.858;25.974;2022-09-23T10:19:26;101418.25;;;18.32;55.15
42169;BME280;27838;43.858;25.974;2022-09-23T10:21:56;101411.72;;;18.48;54.34
42169;BME280;27838;43.858;25.974;2022-09-23T10:24:32;101408.81;;;18.60;52.45
42169;BME280;27838;43.858;25.974;2022-09-23T10:27:01;101406.72;;;18.75;51.11
42169;BME280;27838;43.858;25.974;2022-09-23T10:29:30;101402.31;;;18.77;50.45
42169;BME280;27838;43.858;25.974;2022-09-23T10:32:29;101403.16;;;18.77;50.38
42169;BME280;27838;43.858;25.974;2022-09-23T10:39:57;101388.22;;;19.14;49.13
42169;BME280;27838;43.858;25.974;2022-09-23T10:42:49;101389.78;;;19.22;49.55
42169;BME280;27838;43.858;25.974;2022-09-23T10:45:39;101378.09;;;19.31;47.96
42169;BME280;27838;43.858;25.974;2022-09-23T10:50:54;101370.72;;;19.42;47.52
42169;BME280;27838;43.858;25.974;2022-09-23T10:56:36;101369.31;;;19.62;45.74
42169;BME280;27838;43.858;25.974;2022-09-23T11:10:22;101341.97;;;19.96;43.14
42169;BME280;27838;43.858;25.974;2022-09-23T11:37:17;101291.47;;;20.32;40.95
42169;BME280;27838;43.858;25.974;2022-09-23T11:39:56;101284.44;;;20.31;41.25
42169;BME280;27838;43.858;25.974;2022-09-23T11:42:28;101291.50;;;20.30;40.80
42169;BME280;27838;43.858;25.974;2022-09-23T11:45:07;101279.91;;;20.34;41.64
42169;BME280;27838;43.858;25.974;2022-09-23T11:47:46;101274.81;;;20.28;41.46
42169;BME280;27838;43.858;25.974;2022-09-23T11:50:38;101274.25;;;20.18;41.83
42169;BME280;27838;43.858;25.974;2022-09-23T11:53:17;101272.72;;;20.11;41.84
42169;BME280;27838;43.858;25.974;2022-09-23T11:56:20;101272.97;;;20.02;41.86
42169;BME280;27838;43.858;25.974;2022-09-23T12:01:57;101269.50;;;20.00;41.98
42169;BME280;27838;43.858;25.974;2022-09-23T12:04:37;101264.44;;;19.94;42.44
42169;BME280;27838;43.858;25.974;2022-09-23T12:07:19;101258.53;;;19.84;42.49
42169;BME280;27838;43.858;25.974;2022-09-23T12:10:08;101257.84;;;19.77;40.70
42169;BME280;27838;43.858;25.974;2022-09-23T12:12:58;101257.97;;;19.73;40.30
42169;BME280;27838;43.858;25.974;2022-09-23T12:16:35;101259.72;;;19.72;40.80
42169;BME280;27838;43.858;25.974;2022-09-23T12:26:22;101254.44;;;19.72;41.89
42169;BME280;27838;43.858;25.974;2022-09-23T12:28:53;101260.75;;;19.68;41.67
42169;BME280;27838;43.858;25.974;2022-09-23T12:31:25;101250.09;;;19.71;41.24
42169;BME280;27838;43.858;25.974;2022-09-23T12:33:56;101247.31;;;19.76;41.40
42169;BME280;27838;43.858;25.974;2022-09-23T12:36:34;101244.72;;;19.74;41.61
42169;BME280;27838;43.858;25.974;2022-09-23T12:41:35;101232.84;;;19.88;41.77
42169;BME280;27838;43.858;25.974;2022-09-23T12:46:43;101240.50;;;19.97;42.19
42169;BME280;27838;43.858;25.974;2022-09-23T12:54:37;101226.25;;;20.03;41.54
42169;BME280;27838;43.858;25.974;2022-09-23T12:57:08;101223.72;;;19.98;40.92
42169;BME280;27838;43.858;25.974;2022-09-23T13:02:27;101219.06;;;20.06;41.69
42169;BME280;27838;43.858;25.974;2022-09-23T13:04:58;101219.66;;;20.14;41.64
42169;BME280;27838;43.858;25.974;2022-09-23T13:07:47;101223.25;;;20.13;41.48
42169;BME280;27838;43.858;25.974;2022-09-23T13:10:27;101212.72;;;20.12;41.48
42169;BME280;27838;43.858;25.974;2022-09-23T13:12:55;101224.97;;;20.14;41.55
42169;BME280;27838;43.858;25.974;2022-09-23T13:15:33;101219.66;;;20.14;40.20
42169;BME280;27838;43.858;25.974;2022-09-23T13:26:55;101221.84;;;20.02;39.11
42169;BME280;27838;43.858;25.974;2022-09-23T13:29:25;101224.66;;;19.95;38.79
42169;BME280;27838;43.858;25.974;2022-09-23T13:31:54;101222.16;;;19.92;39.29
42169;BME280;27838;43.858;25.974;2022-09-23T13:34:25;101220.28;;;19.96;38.95
42169;BME280;27838;43.858;25.974;2022-09-23T13:36:54;101214.88;;;19.99;39.23
42169;BME280;27838;43.858;25.974;2022-09-23T13:39:27;101214.09;;;19.95;39.02
42169;BME280;27838;43.858;25.974;2022-09-23T13:41:58;101211.31;;;20.00;38.69
42169;BME280;27838;43.858;25.974;2022-09-23T13:44:26;101205.13;;;20.01;38.78
42169;BME280;27838;43.858;25.974;2022-09-23T13:46:58;101200.03;;;19.93;38.21
42169;BME280;27838;43.858;25.974;2022-09-23T13:49:34;101195.16;;;19.81;37.70
42169;BME280;27838;43.858;25.974;2022-09-23T13:52:01;101198.75;;;19.78;38.22
42169;BME280;27838;43.858;25.974;2022-09-23T13:54:33;101189.00;;;19.80;38.38
42169;BME280;27838;43.858;25.974;2022-09-23T13:57:01;101195.91;;;19.85;38.81
42169;BME280;27838;43.858;25.974;2022-09-23T13:59:29;101186.88;;;19.92;38.98
42169;BME280;27838;43.858;25.974;2022-09-23T14:02:13;101196.47;;;19.96;38.78
42169;BME280;27838;43.858;25.974;2022-09-23T14:04:41;101197.28;;;19.98;37.79
42169;BME280;27838;43.858;25.974;2022-09-23T14:07:10;101192.78;;;20.00;37.82
42169;BME280;27838;43.858;25.974;2022-09-23T14:09:42;101191.94;;;19.99;37.25
42169;BME280;27838;43.858;25.974;2022-09-23T14:12:09;101191.88;;;20.01;37.71
42169;BME280;27838;43.858;25.974;2022-09-23T14:14:37;101183.13;;;19.99;37.31
42169;BME280;27838;43.858;25.974;2022-09-23T14:17:06;101182.22;;;20.00;38.00
42169;BME280;27838;43.858;25.974;2022-09-23T14:19:35;101186.59;;;20.01;37.85
42169;BME280;27838;43.858;25.974;2022-09-23T14:22:05;101183.13;;;19.99;37.75
42169;BME280;27838;43.858;25.974;2022-09-23T14:24:34;101186.59;;;20.01;37.66
42169;BME280;27838;43.858;25.974;2022-09-23T14:27:14;101185.78;;;19.99;38.06
42169;BME280;27838;43.858;25.974;2022-09-23T14:29:44;101185.66;;;20.02;38.58
42169;BME280;27838;43.858;25.974;2022-09-23T14:32:17;101184.75;;;20.03;37.71
42169;BME280;27838;43.858;25.974;2022-09-23T14:37:26;101197.94;;;20.05;38.18
42169;BME280;27838;43.858;25.974;2022-09-23T14:40:24;101198.81;;;20.05;38.55
42169;BME280;27838;43.858;25.974;2022-09-23T14:45:25;101200.72;;;20.00;39.18
42169;BME280;27838;43.858;25.974;2022-09-23T14:47:58;101209.47;;;20.02;39.51
42169;BME280;27838;43.858;25.974;2022-09-23T14:50:28;101215.66;;;20.03;39.85
42169;BME280;27838;43.858;25.974;2022-09-23T14:53:35;101221.91;;;20.00;39.50
42169;BME280;27838;43.858;25.974;2022-09-23T14:58:50;101233.09;;;19.80;39.16
42169;BME280;27838;43.858;25.974;2022-09-23T15:04:10;101239.38;;;19.44;39.33
42169;BME280;27838;43.858;25.974;2022-09-23T15:06:47;101224.09;;;19.24;39.83
42169;BME280;27838;43.858;25.974;2022-09-23T15:09:26;101239.34;;;19.15;41.74
42169;BME280;27838;43.858;25.974;2022-09-23T15:12:06;101248.63;;;18.97;44.13
42169;BME280;27838;43.858;25.974;2022-09-23T15:14:36;101245.59;;;18.76;45.41
42169;BME280;27838;43.858;25.974;2022-09-23T15:17:13;101232.13;;;18.53;45.47
42169;BME280;27838;43.858;25.974;2022-09-23T15:19:42;101224.44;;;18.43;45.95
42169;BME280;27838;43.858;25.974;2022-09-23T15:22:10;101227.38;;;18.31;45.41
42169;BME280;27838;43.858;25.974;2022-09-23T15:24:42;101231.03;;;18.25;47.05
42169;BME280;27838;43.858;25.974;2022-09-23T15:27:32;101227.66;;;18.19;47.70
42169;BME280;27838;43.858;25.974;2022-09-23T15:32:39;101222.41;;;18.17;48.99
42169;BME280;27838;43.858;25.974;2022-09-23T15:35:10;101217.06;;;18.20;50.05